createdAt,value
2016-10-25T00:00:51.565Z,0
2016-10-25T00:01:51.503Z,0
2016-10-25T00:02:51.474Z,0
2016-10-25T00:03:51.446Z,0
2016-10-25T00:04:51.458Z,0
2016-10-25T00:05:51.389Z,0
2016-10-25T00:06:51.373Z,0
2016-10-25T00:07:51.380Z,0
2016-10-25T00:08:51.310Z,0
2016-10-25T00:09:51.321Z,0
2016-10-25T00:10:51.261Z,0
2016-10-25T00:11:51.229Z,0
2016-10-25T00:12:51.203Z,0
2016-10-25T00:13:51.181Z,0
2016-10-25T00:14:51.155Z,0
2016-10-25T00:15:51.131Z,0
2016-10-25T00:16:51.139Z,0
2016-10-25T00:17:51.110Z,0
2016-10-25T00:18:51.048Z,0
2016-10-25T00:19:51.020Z,0
2016-10-25T00:20:50.997Z,0
2016-10-25T00:21:50.971Z,0
2016-10-25T00:22:50.947Z,0
2016-10-25T00:23:50.919Z,0
2016-10-25T00:24:50.895Z,0
2016-10-25T00:25:50.863Z,0
2016-10-25T00:26:50.834Z,0
2016-10-25T00:27:50.808Z,0
2016-10-25T00:28:50.783Z,0
2016-10-25T00:29:50.759Z,0
2016-10-25T00:30:50.756Z,0
2016-10-25T00:31:50.710Z,0
2016-10-25T00:32:50.675Z,0
2016-10-25T00:33:50.650Z,0
2016-10-25T00:34:50.625Z,0
2016-10-25T00:35:50.602Z,0
2016-10-25T00:36:50.583Z,0
2016-10-25T00:37:50.581Z,0
2016-10-25T00:38:50.522Z,0
2016-10-25T00:39:50.492Z,0
2016-10-25T00:40:50.468Z,0
2016-10-25T00:41:50.444Z,0
2016-10-25T00:42:50.414Z,0
2016-10-25T00:43:50.400Z,0
2016-10-25T00:44:50.368Z,0
2016-10-25T00:45:50.334Z,0
2016-10-25T00:46:50.319Z,0
2016-10-25T00:47:50.328Z,0
2016-10-25T00:48:50.268Z,0
2016-10-25T00:49:50.231Z,0
2016-10-25T00:50:50.240Z,0
2016-10-25T00:51:50.180Z,0
2016-10-25T00:52:50.153Z,0
2016-10-25T00:53:50.127Z,0
2016-10-25T00:54:50.098Z,0
2016-10-25T00:55:50.080Z,0
2016-10-25T00:56:50.058Z,0
2016-10-25T00:57:50.027Z,0
2016-10-25T00:58:49.992Z,0
2016-10-25T00:59:49.969Z,0
2016-10-25T01:00:49.949Z,0
2016-10-25T01:01:49.921Z,0
2016-10-25T01:02:49.887Z,0
2016-10-25T01:03:49.865Z,0
2016-10-25T01:04:49.840Z,0
2016-10-25T01:05:49.815Z,0
2016-10-25T01:06:49.821Z,0
2016-10-25T01:07:49.766Z,0
2016-10-25T01:08:49.731Z,0
2016-10-25T01:09:49.703Z,0
2016-10-25T01:10:49.682Z,0
2016-10-25T01:11:49.660Z,0
2016-10-25T01:12:49.635Z,0
2016-10-25T01:13:49.610Z,0
2016-10-25T01:14:49.576Z,0
2016-10-25T01:15:49.550Z,0
2016-10-25T01:16:49.522Z,0
2016-10-25T01:17:49.499Z,0
2016-10-25T01:18:49.469Z,0
2016-10-25T01:19:49.439Z,0
2016-10-25T01:20:49.769Z,0
2016-10-25T01:21:49.397Z,0
2016-10-25T01:22:49.373Z,0
2016-10-25T01:23:49.345Z,0
2016-10-25T01:24:49.327Z,0
2016-10-25T01:25:49.291Z,0
2016-10-25T01:26:49.286Z,0
2016-10-25T01:27:49.237Z,0
2016-10-25T01:28:49.205Z,0
2016-10-25T01:29:49.178Z,0
2016-10-25T01:30:49.155Z,0
2016-10-25T01:31:49.129Z,0
2016-10-25T01:32:49.104Z,0
2016-10-25T01:33:49.076Z,0
2016-10-25T01:34:49.046Z,0
2016-10-25T01:35:49.026Z,0
2016-10-25T01:36:48.998Z,0
2016-10-25T01:37:48.972Z,0
2016-10-25T01:38:49.248Z,0
2016-10-25T01:39:48.920Z,0
2016-10-25T01:40:48.889Z,0
2016-10-25T01:41:48.862Z,0
2016-10-25T01:42:48.843Z,0
2016-10-25T01:43:48.813Z,0
2016-10-25T01:44:48.790Z,0
2016-10-25T01:45:48.758Z,0
2016-10-25T01:46:48.726Z,0
2016-10-25T01:47:48.705Z,0
2016-10-25T01:48:48.684Z,0
2016-10-25T01:49:48.689Z,0
2016-10-25T01:50:48.621Z,0
2016-10-25T01:51:48.598Z,0
2016-10-25T01:52:48.574Z,0
2016-10-25T01:53:48.544Z,0
2016-10-25T01:54:48.515Z,0
2016-10-25T01:55:48.491Z,0
2016-10-25T01:56:48.470Z,0
2016-10-25T01:57:48.438Z,0
2016-10-25T01:58:48.413Z,0
2016-10-25T01:59:48.384Z,0
2016-10-25T02:00:48.357Z,0
2016-10-25T02:01:48.335Z,0
2016-10-25T02:02:48.333Z,0
2016-10-25T02:03:48.278Z,0
2016-10-25T02:04:48.256Z,0
2016-10-25T02:05:48.224Z,0
2016-10-25T02:06:48.204Z,0
2016-10-25T02:07:48.169Z,0
2016-10-25T02:08:48.150Z,0
2016-10-25T02:09:48.116Z,0
2016-10-25T02:10:48.409Z,0
2016-10-25T02:11:48.075Z,0
2016-10-25T02:12:48.351Z,0
2016-10-25T02:13:48.057Z,0
2016-10-25T02:14:47.990Z,0
2016-10-25T02:15:47.963Z,0
2016-10-25T02:16:47.933Z,0
2016-10-25T02:17:47.910Z,0
2016-10-25T02:18:47.885Z,0
2016-10-25T02:19:47.855Z,0
2016-10-25T02:20:47.840Z,0
2016-10-25T02:21:47.802Z,0
2016-10-25T02:22:47.776Z,0
2016-10-25T02:23:47.744Z,0
2016-10-25T02:24:47.727Z,0
2016-10-25T02:25:47.697Z,0
2016-10-25T02:26:47.673Z,0
2016-10-25T02:27:47.642Z,0
2016-10-25T02:28:47.611Z,0
2016-10-25T02:29:47.595Z,0
2016-10-25T02:30:47.570Z,0
2016-10-25T02:31:47.540Z,0
2016-10-25T02:32:47.514Z,0
2016-10-25T02:33:47.485Z,0
2016-10-25T02:34:47.462Z,0
2016-10-25T02:35:47.436Z,0
2016-10-25T02:36:47.408Z,0
2016-10-25T02:37:47.386Z,0
2016-10-25T02:38:47.357Z,0
2016-10-25T02:39:47.329Z,0
2016-10-25T02:40:47.296Z,0
2016-10-25T02:41:47.281Z,0
2016-10-25T02:42:47.251Z,0
2016-10-25T02:43:47.232Z,0
2016-10-25T02:44:47.196Z,0
2016-10-25T02:45:47.170Z,0
2016-10-25T02:46:47.448Z,0
2016-10-25T02:47:47.115Z,0
2016-10-25T02:48:47.089Z,0
2016-10-25T02:49:47.071Z,0
2016-10-25T02:50:47.035Z,0
2016-10-25T02:51:47.010Z,0
2016-10-25T02:52:46.988Z,0
2016-10-25T02:53:46.955Z,0
2016-10-25T02:54:46.932Z,0
2016-10-25T02:55:46.911Z,0
2016-10-25T02:56:46.890Z,0
2016-10-25T02:57:46.858Z,0
2016-10-25T02:58:46.828Z,0
2016-10-25T02:59:46.799Z,0
2016-10-25T03:00:46.813Z,0
2016-10-25T03:01:47.048Z,0
2016-10-25T03:02:46.718Z,0
2016-10-25T03:03:46.990Z,0
2016-10-25T03:04:46.672Z,0
2016-10-25T03:05:46.642Z,0
2016-10-25T03:06:46.651Z,0
2016-10-25T03:07:46.588Z,0
2016-10-25T03:08:46.560Z,0
2016-10-25T03:09:46.535Z,0
2016-10-25T03:10:46.507Z,0
2016-10-25T03:11:46.480Z,0
2016-10-25T03:12:46.456Z,0
2016-10-25T03:13:46.430Z,0
2016-10-25T03:14:46.397Z,0
2016-10-25T03:15:46.375Z,0
2016-10-25T03:16:46.391Z,0
2016-10-25T03:17:46.351Z,0
2016-10-25T03:18:46.308Z,0
2016-10-25T03:19:46.271Z,0
2016-10-25T03:20:46.246Z,0
2016-10-25T03:21:46.219Z,0
2016-10-25T03:22:46.191Z,0
2016-10-25T03:23:46.167Z,0
2016-10-25T03:24:46.141Z,0
2016-10-25T03:25:46.110Z,0
2016-10-25T03:26:46.119Z,0
2016-10-25T03:27:46.055Z,0
2016-10-25T03:28:46.064Z,0
2016-10-25T03:29:46.043Z,0
2016-10-25T03:30:46.005Z,0
2016-10-25T03:31:45.953Z,0
2016-10-25T03:32:45.932Z,0
2016-10-25T03:33:45.903Z,0
2016-10-25T03:34:45.878Z,0
2016-10-25T03:35:45.848Z,0
2016-10-25T03:36:45.814Z,0
2016-10-25T03:37:45.829Z,0
2016-10-25T03:38:45.769Z,0
2016-10-25T03:39:45.780Z,0
2016-10-25T03:40:45.714Z,0
2016-10-25T03:41:45.697Z,0
2016-10-25T03:42:45.661Z,0
2016-10-25T03:43:45.636Z,0
2016-10-25T03:44:45.614Z,0
2016-10-25T03:45:45.583Z,0
2016-10-25T03:46:45.556Z,0
2016-10-25T03:47:45.531Z,0
2016-10-25T03:48:45.521Z,0
2016-10-25T03:49:45.480Z,0
2016-10-25T03:50:45.457Z,0
2016-10-25T03:51:45.429Z,0
2016-10-25T03:52:45.399Z,0
2016-10-25T03:53:45.380Z,0
2016-10-25T03:54:45.643Z,0
2016-10-25T03:55:45.335Z,0
2016-10-25T03:56:45.291Z,0
2016-10-25T03:57:45.303Z,0
2016-10-25T03:58:45.245Z,0
2016-10-25T03:59:45.226Z,0
2016-10-25T04:00:45.188Z,0
2016-10-25T04:01:45.166Z,0
2016-10-25T04:02:45.136Z,0
2016-10-25T04:03:45.107Z,0
2016-10-25T04:04:45.080Z,0
2016-10-25T04:05:45.060Z,0
2016-10-25T04:06:45.028Z,0
2016-10-25T04:07:45.000Z,0
2016-10-25T04:08:44.978Z,0
2016-10-25T04:09:44.955Z,0
2016-10-25T04:10:44.927Z,0
2016-10-25T04:11:44.898Z,0
2016-10-25T04:12:44.871Z,0
2016-10-25T04:13:44.846Z,0
2016-10-25T04:14:44.821Z,0
2016-10-25T04:15:44.818Z,0
2016-10-25T04:16:44.769Z,0
2016-10-25T04:17:44.739Z,0
2016-10-25T04:18:44.715Z,0
2016-10-25T04:19:44.691Z,0
2016-10-25T04:20:44.668Z,0
2016-10-25T04:21:44.641Z,0
2016-10-25T04:22:44.612Z,0
2016-10-25T04:23:44.582Z,0
2016-10-25T04:24:44.568Z,0
2016-10-25T04:25:44.530Z,0
2016-10-25T04:26:44.544Z,0
2016-10-25T04:27:44.478Z,0
2016-10-25T04:28:44.453Z,0
2016-10-25T04:29:44.430Z,0
2016-10-25T04:30:44.399Z,0
2016-10-25T04:31:44.377Z,0
2016-10-25T04:32:44.352Z,0
2016-10-25T04:33:44.325Z,0
2016-10-25T04:34:44.295Z,0
2016-10-25T04:35:44.277Z,0
2016-10-25T04:36:44.250Z,0
2016-10-25T04:37:44.258Z,0
2016-10-25T04:38:44.187Z,0
2016-10-25T04:39:44.165Z,0
2016-10-25T04:40:44.141Z,0
2016-10-25T04:41:44.110Z,0
2016-10-25T04:42:44.084Z,0
2016-10-25T04:43:44.067Z,0
2016-10-25T04:44:44.032Z,0
2016-10-25T04:45:44.002Z,0
2016-10-25T04:46:43.980Z,0
2016-10-25T04:47:43.955Z,0
2016-10-25T04:48:43.923Z,0
2016-10-25T04:49:43.909Z,0
2016-10-25T04:50:43.870Z,0
2016-10-25T04:51:43.854Z,0
2016-10-25T04:52:43.818Z,0
2016-10-25T04:53:43.793Z,0
2016-10-25T04:54:43.788Z,0
2016-10-25T04:55:43.741Z,0
2016-10-25T04:56:43.719Z,0
2016-10-25T04:57:43.697Z,0
2016-10-25T04:58:43.665Z,0
2016-10-25T04:59:43.637Z,0
2016-10-25T05:00:43.611Z,0
2016-10-25T05:01:43.588Z,0
2016-10-25T05:02:43.556Z,0
2016-10-25T05:03:43.532Z,0
2016-10-25T05:04:43.505Z,0
2016-10-25T05:05:43.479Z,0
2016-10-25T05:06:43.449Z,0
2016-10-25T05:07:43.430Z,0
2016-10-25T05:08:43.399Z,0
2016-10-25T05:09:43.375Z,0
2016-10-25T05:10:43.348Z,0
2016-10-25T05:11:43.313Z,0
2016-10-25T05:12:43.288Z,0
2016-10-25T05:13:43.296Z,0
2016-10-25T05:14:43.241Z,0
2016-10-25T05:15:43.212Z,0
2016-10-25T05:16:43.185Z,0
2016-10-25T05:17:43.189Z,0
2016-10-25T05:18:43.134Z,0
2016-10-25T05:19:43.110Z,0
2016-10-25T05:20:43.076Z,0
2016-10-25T05:21:43.052Z,0
2016-10-25T05:22:43.031Z,0
2016-10-25T05:23:43.001Z,0
2016-10-25T05:24:42.977Z,0
2016-10-25T05:25:42.950Z,0
2016-10-25T05:26:42.926Z,0
2016-10-25T05:27:42.892Z,0
2016-10-25T05:28:42.873Z,0
2016-10-25T05:29:42.842Z,0
2016-10-25T05:30:43.111Z,0
2016-10-25T05:31:42.790Z,0
2016-10-25T05:32:42.755Z,0
2016-10-25T05:33:42.726Z,0
2016-10-25T05:34:42.721Z,0
2016-10-25T05:35:42.680Z,0
2016-10-25T05:36:42.655Z,0
2016-10-25T05:37:42.622Z,0
2016-10-25T05:38:42.602Z,0
2016-10-25T05:39:42.572Z,0
2016-10-25T05:40:42.537Z,0
2016-10-25T05:41:42.516Z,0
2016-10-25T05:42:42.490Z,0
2016-10-25T05:43:42.465Z,0
2016-10-25T05:44:42.442Z,0
2016-10-25T05:45:42.712Z,0
2016-10-25T05:46:42.387Z,0
2016-10-25T05:47:42.355Z,0
2016-10-25T05:48:42.327Z,0
2016-10-25T05:49:42.309Z,0
2016-10-25T05:50:42.296Z,0
2016-10-25T05:51:42.255Z,0
2016-10-25T05:52:42.227Z,0
2016-10-25T05:53:42.195Z,0
2016-10-25T05:54:42.175Z,0
2016-10-25T05:55:42.140Z,0
2016-10-25T05:56:42.111Z,0
2016-10-25T05:57:42.087Z,0
2016-10-25T05:58:42.058Z,0
2016-10-25T05:59:42.031Z,0
2016-10-25T06:00:42.011Z,0
2016-10-25T06:01:41.992Z,0
2016-10-25T06:02:41.966Z,0
2016-10-25T06:03:41.929Z,0
2016-10-25T06:04:41.900Z,0
2016-10-25T06:05:41.877Z,0
2016-10-25T06:06:41.855Z,0
2016-10-25T06:07:41.826Z,0
2016-10-25T06:08:41.791Z,0
2016-10-25T06:09:41.764Z,0
2016-10-25T06:10:41.759Z,0
2016-10-25T06:11:41.716Z,0
2016-10-25T06:12:41.686Z,0
2016-10-25T06:13:41.656Z,0
2016-10-25T06:14:41.633Z,0
2016-10-25T06:15:41.604Z,5
2016-10-25T06:16:41.579Z,5
2016-10-25T06:17:41.549Z,0
2016-10-25T06:18:41.532Z,5
2016-10-25T06:19:41.504Z,5
2016-10-25T06:20:41.467Z,5
2016-10-25T06:21:41.454Z,5
2016-10-25T06:22:41.412Z,5
2016-10-25T06:23:41.384Z,5
2016-10-25T06:24:41.357Z,5
2016-10-25T06:25:41.330Z,5
2016-10-25T06:26:41.310Z,5
2016-10-25T06:27:41.278Z,5
2016-10-25T06:28:41.268Z,5
2016-10-25T06:29:41.224Z,5
2016-10-25T06:30:41.231Z,5
2016-10-25T06:31:41.178Z,5
2016-10-25T06:32:41.147Z,5
2016-10-25T06:33:41.117Z,10
2016-10-25T06:34:41.096Z,10
2016-10-25T06:35:41.062Z,10
2016-10-25T06:36:41.037Z,10
2016-10-25T06:37:41.005Z,10
2016-10-25T06:38:40.980Z,10
2016-10-25T06:39:40.951Z,10
2016-10-25T06:40:40.930Z,10
2016-10-25T06:41:40.902Z,10
2016-10-25T06:42:40.876Z,10
2016-10-25T06:43:40.851Z,15
2016-10-25T06:44:40.826Z,15
2016-10-25T06:45:40.797Z,15
2016-10-25T06:46:40.767Z,15
2016-10-25T06:47:41.071Z,20
2016-10-25T06:48:40.712Z,20
2016-10-25T06:49:40.717Z,20
2016-10-25T06:50:40.664Z,20
2016-10-25T06:51:40.632Z,20
2016-10-25T06:52:40.598Z,20
2016-10-25T06:53:40.576Z,20
2016-10-25T06:54:40.559Z,15
2016-10-25T06:55:40.527Z,15
2016-10-25T06:56:40.500Z,15
2016-10-25T06:57:40.472Z,15
2016-10-25T06:58:40.444Z,15
2016-10-25T06:59:40.418Z,15
2016-10-25T07:00:40.388Z,15
2016-10-25T07:01:40.361Z,15
2016-10-25T07:02:40.340Z,20
2016-10-25T07:03:40.604Z,20
2016-10-25T07:04:40.283Z,20
2016-10-25T07:05:40.257Z,25
2016-10-25T07:06:40.232Z,20
2016-10-25T07:07:40.217Z,20
2016-10-25T07:08:40.174Z,15
2016-10-25T07:09:40.178Z,15
2016-10-25T07:10:40.115Z,15
2016-10-25T07:11:40.091Z,20
2016-10-25T07:12:40.099Z,25
2016-10-25T07:13:40.033Z,20
2016-10-25T07:14:40.026Z,20
2016-10-25T07:15:39.994Z,30
2016-10-25T07:16:39.959Z,30
2016-10-25T07:17:39.974Z,35
2016-10-25T07:18:39.906Z,35
2016-10-25T07:19:39.883Z,35
2016-10-25T07:20:39.858Z,40
2016-10-25T07:21:39.827Z,35
2016-10-25T07:22:39.796Z,30
2016-10-25T07:23:39.775Z,35
2016-10-25T07:24:39.784Z,30
2016-10-25T07:25:39.716Z,35
2016-10-25T07:26:39.690Z,40
2016-10-25T07:27:39.667Z,35
2016-10-25T07:28:39.643Z,40
2016-10-25T07:29:39.614Z,35
2016-10-25T07:30:39.582Z,35
2016-10-25T07:31:39.557Z,40
2016-10-25T07:32:39.537Z,35
2016-10-25T07:33:39.501Z,40
2016-10-25T07:34:39.477Z,40
2016-10-25T07:35:39.448Z,35
2016-10-25T07:36:39.420Z,35
2016-10-25T07:37:39.392Z,40
2016-10-25T07:38:39.368Z,40
2016-10-25T07:39:39.342Z,45
2016-10-25T07:40:39.307Z,45
2016-10-25T07:41:39.282Z,45
2016-10-25T07:42:39.262Z,45
2016-10-25T07:43:39.237Z,45
2016-10-25T07:44:39.205Z,40
2016-10-25T07:45:39.182Z,35
2016-10-25T07:46:39.182Z,35
2016-10-25T07:47:39.132Z,35
2016-10-25T07:48:39.103Z,35
2016-10-25T07:49:39.072Z,35
2016-10-25T07:50:39.044Z,45
2016-10-25T07:51:39.158Z,45
2016-10-25T07:52:38.998Z,50
2016-10-25T07:53:38.970Z,45
2016-10-25T07:54:38.934Z,40
2016-10-25T07:55:38.910Z,40
2016-10-25T07:56:38.888Z,35
2016-10-25T07:57:38.857Z,40
2016-10-25T07:58:38.830Z,40
2016-10-25T07:59:39.139Z,45
2016-10-25T08:00:38.776Z,45
2016-10-25T08:01:38.780Z,50
2016-10-25T08:02:38.724Z,50
2016-10-25T08:03:38.691Z,55
2016-10-25T08:04:38.702Z,55
2016-10-25T08:05:38.644Z,50
2016-10-25T08:06:38.612Z,55
2016-10-25T08:07:38.624Z,55
2016-10-25T08:08:38.580Z,60
2016-10-25T08:09:38.537Z,50
2016-10-25T08:10:38.504Z,50
2016-10-25T08:11:38.505Z,45
2016-10-25T08:12:38.450Z,45
2016-10-25T08:13:38.427Z,45
2016-10-25T08:14:38.400Z,45
2016-10-25T08:15:38.678Z,55
2016-10-25T08:16:38.342Z,65
2016-10-25T08:17:38.320Z,75
2016-10-25T08:18:38.289Z,60
2016-10-25T08:19:38.263Z,55
2016-10-25T08:20:38.234Z,55
2016-10-25T08:21:38.208Z,60
2016-10-25T08:22:38.189Z,70
2016-10-25T08:23:38.153Z,75
2016-10-25T08:24:38.129Z,75
2016-10-25T08:25:38.103Z,85
2016-10-25T08:26:38.074Z,70
2016-10-25T08:27:38.046Z,75
2016-10-25T08:28:38.018Z,75
2016-10-25T08:29:38.019Z,60
2016-10-25T08:30:37.964Z,50
2016-10-25T08:31:37.941Z,50
2016-10-25T08:32:37.911Z,50
2016-10-25T08:33:37.880Z,50
2016-10-25T08:34:37.860Z,45
2016-10-25T08:35:37.824Z,45
2016-10-25T08:36:37.801Z,60
2016-10-25T08:37:37.773Z,55
2016-10-25T08:38:38.054Z,50
2016-10-25T08:39:37.720Z,40
2016-10-25T08:40:38.072Z,45
2016-10-25T08:41:37.669Z,50
2016-10-25T08:42:37.637Z,60
2016-10-25T08:43:37.610Z,70
2016-10-25T08:44:37.583Z,85
2016-10-25T08:45:37.583Z,95
2016-10-25T08:46:37.525Z,100
2016-10-25T08:47:37.500Z,110
2016-10-25T08:48:37.480Z,120
2016-10-25T08:49:37.448Z,120
2016-10-25T08:50:37.415Z,105
2016-10-25T08:51:37.394Z,110
2016-10-25T08:52:37.360Z,105
2016-10-25T08:53:37.333Z,110
2016-10-25T08:54:37.339Z,120
2016-10-25T08:55:37.286Z,140
2016-10-25T08:56:37.257Z,120
2016-10-25T08:57:37.330Z,120
2016-10-25T08:58:37.200Z,140
2016-10-25T08:59:37.179Z,155
2016-10-25T09:00:37.146Z,165
2016-10-25T09:01:37.119Z,170
2016-10-25T09:02:37.092Z,170
2016-10-25T09:03:37.068Z,180
2016-10-25T09:04:37.038Z,175
2016-10-25T09:05:37.010Z,205
2016-10-25T09:06:36.977Z,205
2016-10-25T09:07:36.955Z,185
2016-10-25T09:08:36.925Z,165
2016-10-25T09:09:36.906Z,165
2016-10-25T09:10:36.884Z,195
2016-10-25T09:11:36.846Z,190
2016-10-25T09:12:36.814Z,185
2016-10-25T09:13:36.796Z,180
2016-10-25T09:14:36.764Z,150
2016-10-25T09:15:36.763Z,155
2016-10-25T09:16:36.708Z,150
2016-10-25T09:17:36.680Z,155
2016-10-25T09:18:36.651Z,155
2016-10-25T09:19:36.625Z,165
2016-10-25T09:20:36.609Z,190
2016-10-25T09:21:36.576Z,175
2016-10-25T09:22:36.548Z,175
2016-10-25T09:23:36.516Z,160
2016-10-25T09:24:36.486Z,175
2016-10-25T09:25:36.463Z,205
2016-10-25T09:26:36.468Z,300
2016-10-25T09:27:36.437Z,310
2016-10-25T09:28:36.392Z,265
2016-10-25T09:29:36.389Z,225
2016-10-25T09:30:36.328Z,240
2016-10-25T09:31:36.297Z,275
2016-10-25T09:32:36.272Z,250
2016-10-25T09:33:36.252Z,235
2016-10-25T09:34:36.216Z,285
2016-10-25T09:35:36.186Z,255
2016-10-25T09:36:36.200Z,220
2016-10-25T09:37:36.137Z,215
2016-10-25T09:38:36.114Z,215
2016-10-25T09:39:36.091Z,200
2016-10-25T09:40:36.091Z,190
2016-10-25T09:41:36.034Z,205
2016-10-25T09:42:36.029Z,230
2016-10-25T09:43:35.977Z,235
2016-10-25T09:44:35.945Z,265
2016-10-25T09:45:35.920Z,240
2016-10-25T09:46:35.893Z,205
2016-10-25T09:47:35.861Z,220
2016-10-25T09:48:35.867Z,210
2016-10-25T09:49:35.810Z,190
2016-10-25T09:50:35.782Z,170
2016-10-25T09:51:35.764Z,160
2016-10-25T09:52:35.730Z,145
2016-10-25T09:53:35.707Z,160
2016-10-25T09:54:35.676Z,185
2016-10-25T09:55:35.646Z,240
2016-10-25T09:56:35.620Z,250
2016-10-25T09:57:35.903Z,205
2016-10-25T09:58:35.563Z,165
2016-10-25T09:59:35.541Z,175
2016-10-25T10:00:35.518Z,200
2016-10-25T10:01:35.495Z,225
2016-10-25T10:02:35.469Z,240
2016-10-25T10:03:35.433Z,225
2016-10-25T10:04:35.414Z,220
2016-10-25T10:05:35.384Z,215
2016-10-25T10:06:35.354Z,225
2016-10-25T10:07:35.609Z,230
2016-10-25T10:08:35.297Z,225
2016-10-25T10:09:35.271Z,240
2016-10-25T10:10:35.244Z,240
2016-10-25T10:11:35.217Z,235
2016-10-25T10:12:35.213Z,235
2016-10-25T10:13:35.162Z,235
2016-10-25T10:14:35.216Z,230
2016-10-25T10:15:35.115Z,240
2016-10-25T10:16:35.081Z,230
2016-10-25T10:17:35.059Z,220
2016-10-25T10:18:35.030Z,215
2016-10-25T10:19:35.034Z,225
2016-10-25T10:20:34.979Z,240
2016-10-25T10:21:34.951Z,240
2016-10-25T10:22:34.932Z,250
2016-10-25T10:23:34.900Z,270
2016-10-25T10:24:34.870Z,285
2016-10-25T10:25:34.841Z,290
2016-10-25T10:26:34.815Z,280
2016-10-25T10:27:34.789Z,285
2016-10-25T10:28:34.796Z,280
2016-10-25T10:29:34.737Z,280
2016-10-25T10:30:34.720Z,295
2016-10-25T10:31:34.680Z,310
2016-10-25T10:32:34.657Z,320
2016-10-25T10:33:34.936Z,315
2016-10-25T10:34:34.605Z,300
2016-10-25T10:35:34.577Z,300
2016-10-25T10:36:34.574Z,300
2016-10-25T10:37:34.520Z,305
2016-10-25T10:38:34.492Z,295
2016-10-25T10:39:34.473Z,290
2016-10-25T10:40:34.448Z,290
2016-10-25T10:41:34.421Z,285
2016-10-25T10:42:34.390Z,290
2016-10-25T10:43:34.366Z,300
2016-10-25T10:44:34.341Z,315
2016-10-25T10:45:34.315Z,310
2016-10-25T10:46:34.284Z,300
2016-10-25T10:47:34.263Z,290
2016-10-25T10:48:34.239Z,275
2016-10-25T10:49:34.202Z,260
2016-10-25T10:50:34.488Z,255
2016-10-25T10:51:34.173Z,270
2016-10-25T10:52:34.128Z,280
2016-10-25T10:53:34.104Z,275
2016-10-25T10:54:34.074Z,270
2016-10-25T10:55:34.044Z,260
2016-10-25T10:56:34.066Z,255
2016-10-25T10:57:33.997Z,240
2016-10-25T10:58:33.972Z,230
2016-10-25T10:59:33.941Z,210
2016-10-25T11:00:33.911Z,205
2016-10-25T11:01:33.890Z,215
2016-10-25T11:02:33.866Z,220
2016-10-25T11:03:34.129Z,220
2016-10-25T11:04:33.809Z,240
2016-10-25T11:05:33.778Z,265
2016-10-25T11:06:33.786Z,295
2016-10-25T11:07:33.728Z,325
2016-10-25T11:08:33.696Z,335
2016-10-25T11:09:33.752Z,345
2016-10-25T11:10:33.652Z,360
2016-10-25T11:11:33.623Z,360
2016-10-25T11:12:33.595Z,340
2016-10-25T11:13:33.576Z,335
2016-10-25T11:14:33.540Z,330
2016-10-25T11:15:33.519Z,325
2016-10-25T11:16:33.494Z,350
2016-10-25T11:17:33.471Z,405
2016-10-25T11:18:33.435Z,445
2016-10-25T11:19:33.419Z,460
2016-10-25T11:20:33.381Z,475
2016-10-25T11:21:33.360Z,495
2016-10-25T11:22:33.333Z,505
2016-10-25T11:23:33.304Z,510
2016-10-25T11:24:33.283Z,515
2016-10-25T11:25:33.256Z,510
2016-10-25T11:26:33.222Z,485
2016-10-25T11:27:33.206Z,470
2016-10-25T11:28:33.169Z,455
2016-10-25T11:29:33.145Z,440
2016-10-25T11:30:33.126Z,445
2016-10-25T11:31:33.404Z,455
2016-10-25T11:32:33.077Z,435
2016-10-25T11:33:33.407Z,395
2016-10-25T11:34:33.215Z,335
2016-10-25T11:35:32.999Z,310
2016-10-25T11:36:32.964Z,320
2016-10-25T11:37:32.976Z,355
2016-10-25T11:38:33.215Z,415
2016-10-25T11:39:32.890Z,480
2016-10-25T11:40:33.167Z,475
2016-10-25T11:41:32.841Z,475
2016-10-25T11:42:32.811Z,525
2016-10-25T11:43:32.791Z,530
2016-10-25T11:44:32.769Z,505
2016-10-25T11:45:32.743Z,550
2016-10-25T11:46:32.708Z,535
2016-10-25T11:47:32.695Z,510
2016-10-25T11:48:32.665Z,475
2016-10-25T11:49:32.632Z,410
2016-10-25T11:50:32.617Z,390
2016-10-25T11:51:32.591Z,405
2016-10-25T11:52:32.564Z,455
2016-10-25T11:53:32.538Z,490
2016-10-25T11:54:32.508Z,525
2016-10-25T11:55:32.607Z,560
2016-10-25T11:56:32.463Z,545
2016-10-25T11:57:32.445Z,510
2016-10-25T11:58:32.714Z,490
2016-10-25T11:59:32.393Z,490
2016-10-25T12:00:32.363Z,515
2016-10-25T12:01:32.335Z,520
2016-10-25T12:02:32.309Z,505
2016-10-25T12:03:32.287Z,480
2016-10-25T12:04:32.561Z,470
2016-10-25T12:05:32.237Z,495
2016-10-25T12:06:32.215Z,500
2016-10-25T12:07:32.184Z,490
2016-10-25T12:08:32.159Z,470
2016-10-25T12:09:32.435Z,455
2016-10-25T12:10:32.116Z,435
2016-10-25T12:11:32.086Z,420
2016-10-25T12:12:32.054Z,405
2016-10-25T12:13:32.061Z,395
2016-10-25T12:14:32.011Z,400
2016-10-25T12:15:31.983Z,405
2016-10-25T12:16:31.969Z,410
2016-10-25T12:17:31.933Z,410
2016-10-25T12:18:31.916Z,430
2016-10-25T12:19:31.885Z,475
2016-10-25T12:20:31.863Z,505
2016-10-25T12:21:31.835Z,530
2016-10-25T12:22:31.808Z,530
2016-10-25T12:23:31.793Z,510
2016-10-25T12:24:31.754Z,510
2016-10-25T12:25:31.741Z,540
2016-10-25T12:26:31.708Z,545
2016-10-25T12:27:31.685Z,550
2016-10-25T12:28:31.665Z,555
2016-10-25T12:29:31.637Z,560
2016-10-25T12:30:31.622Z,565
2016-10-25T12:31:31.587Z,560
2016-10-25T12:32:31.559Z,550
2016-10-25T12:33:31.542Z,535
2016-10-25T12:34:31.810Z,520
2016-10-25T12:35:31.485Z,505
2016-10-25T12:36:31.479Z,490
2016-10-25T12:37:31.441Z,485
2016-10-25T12:38:31.729Z,485
2016-10-25T12:39:31.390Z,485
2016-10-25T12:40:31.405Z,495
2016-10-25T12:41:31.373Z,495
2016-10-25T12:42:31.315Z,505
2016-10-25T12:43:31.291Z,510
2016-10-25T12:44:31.266Z,500
2016-10-25T12:45:31.248Z,495
2016-10-25T12:46:31.224Z,500
2016-10-25T12:47:31.193Z,475
2016-10-25T12:48:31.166Z,455
2016-10-25T12:49:31.175Z,450
2016-10-25T12:50:31.115Z,445
2016-10-25T12:51:31.099Z,455
2016-10-25T12:52:31.069Z,465
2016-10-25T12:53:31.050Z,465
2016-10-25T12:54:31.034Z,445
2016-10-25T12:55:31.008Z,420
2016-10-25T12:56:30.974Z,400
2016-10-25T12:57:30.950Z,385
2016-10-25T12:58:30.925Z,380
2016-10-25T12:59:30.902Z,365
2016-10-25T13:00:31.123Z,370
2016-10-25T13:01:30.889Z,385
2016-10-25T13:02:30.858Z,415
2016-10-25T13:03:30.809Z,420
2016-10-25T13:04:30.781Z,425
2016-10-25T13:05:30.798Z,445
2016-10-25T13:06:30.758Z,465
2016-10-25T13:07:30.702Z,450
2016-10-25T13:08:30.671Z,420
2016-10-25T13:09:30.644Z,410
2016-10-25T13:10:30.627Z,405
2016-10-25T13:11:30.601Z,395
2016-10-25T13:12:30.573Z,380
2016-10-25T13:13:30.589Z,365
2016-10-25T13:14:30.531Z,360
2016-10-25T13:15:30.532Z,350
2016-10-25T13:16:30.470Z,345
2016-10-25T13:17:30.446Z,330
2016-10-25T13:18:30.429Z,325
2016-10-25T13:19:30.403Z,320
2016-10-25T13:20:30.372Z,320
2016-10-25T13:21:30.348Z,350
2016-10-25T13:22:30.319Z,375
2016-10-25T13:23:30.597Z,380
2016-10-25T13:24:30.277Z,365
2016-10-25T13:25:30.252Z,345
2016-10-25T13:26:30.233Z,310
2016-10-25T13:27:30.201Z,295
2016-10-25T13:28:30.179Z,290
2016-10-25T13:29:30.147Z,280
2016-10-25T13:30:30.120Z,260
2016-10-25T13:31:30.098Z,235
2016-10-25T13:32:30.072Z,220
2016-10-25T13:33:30.048Z,210
2016-10-25T13:34:30.024Z,210
2016-10-25T13:35:30.005Z,210
2016-10-25T13:36:29.975Z,210
2016-10-25T13:37:29.948Z,225
2016-10-25T13:38:29.953Z,265
2016-10-25T13:39:29.896Z,275
2016-10-25T13:40:29.874Z,265
2016-10-25T13:41:29.846Z,240
2016-10-25T13:42:29.821Z,245
2016-10-25T13:43:29.797Z,260
2016-10-25T13:44:29.770Z,255
2016-10-25T13:45:29.752Z,255
2016-10-25T13:46:29.768Z,245
2016-10-25T13:47:29.701Z,235
2016-10-25T13:48:29.666Z,215
2016-10-25T13:49:29.660Z,195
2016-10-25T13:50:29.662Z,180
2016-10-25T13:51:29.587Z,175
2016-10-25T13:52:29.564Z,165
2016-10-25T13:53:29.584Z,145
2016-10-25T13:54:29.510Z,135
2016-10-25T13:55:29.483Z,125
2016-10-25T13:56:29.455Z,125
2016-10-25T13:57:29.736Z,130
2016-10-25T13:58:29.459Z,135
2016-10-25T13:59:29.381Z,130
2016-10-25T14:00:29.356Z,130
2016-10-25T14:01:29.327Z,125
2016-10-25T14:02:29.307Z,120
2016-10-25T14:03:29.277Z,105
2016-10-25T14:04:29.257Z,100
2016-10-25T14:05:29.232Z,100
2016-10-25T14:06:29.201Z,105
2016-10-25T14:07:29.175Z,105
2016-10-25T14:08:29.145Z,95
2016-10-25T14:09:29.122Z,85
2016-10-25T14:10:29.105Z,80
2016-10-25T14:11:29.064Z,80
2016-10-25T14:12:29.043Z,80
2016-10-25T14:13:29.022Z,90
2016-10-25T14:14:29.285Z,95
2016-10-25T14:15:28.973Z,100
2016-10-25T14:16:28.939Z,100
2016-10-25T14:17:28.913Z,95
2016-10-25T14:18:28.888Z,90